createdAt,value
2018-12-13T00:01:40.941Z,102353.62
2018-12-13T00:04:08.330Z,102351.41
2018-12-13T00:06:35.733Z,102354.41
2018-12-13T00:09:03.523Z,102348.89
2018-12-13T00:11:30.950Z,102350.22
2018-12-13T00:13:58.368Z,102342.95
2018-12-13T00:16:25.769Z,102339.97
2018-12-13T00:18:53.309Z,102344.70
2018-12-13T00:21:20.749Z,102342.53
2018-12-13T00:23:48.163Z,102343.01
2018-12-13T00:26:15.568Z,102337.42
2018-12-13T00:28:42.976Z,102334.82
2018-12-13T00:31:10.383Z,102341.28
2018-12-13T00:33:38.717Z,102337.86
2018-12-13T00:36:06.137Z,102336.53
2018-12-13T00:38:33.583Z,102333.20
2018-12-13T00:41:01.000Z,102334.96
2018-12-13T00:43:28.402Z,102333.66
2018-12-13T00:45:55.806Z,102337.03
2018-12-13T00:48:23.209Z,102340.08
2018-12-13T00:50:50.610Z,102339.63
2018-12-13T00:53:18.009Z,102343.84
2018-12-13T00:55:45.446Z,102342.57
2018-12-13T00:58:12.867Z,102337.45
2018-12-13T01:00:40.311Z,102339.59
2018-12-13T01:03:08.379Z,102341.34
2018-12-13T01:05:35.918Z,102342.64
2018-12-13T01:08:03.331Z,102337.93
2018-12-13T01:10:30.730Z,102339.25
2018-12-13T01:12:58.167Z,102344.37
2018-12-13T01:15:27.553Z,102343.94
2018-12-13T01:17:54.970Z,102340.50
2018-12-13T01:20:22.424Z,102342.27
2018-12-13T01:22:49.862Z,102344.86
2018-12-13T01:25:17.279Z,102336.64
2018-12-13T01:27:44.699Z,102338.37
2018-12-13T01:30:12.115Z,102331.38
2018-12-13T01:32:39.532Z,102330.59
2018-12-13T01:35:06.950Z,102331.50
2018-12-13T01:37:34.381Z,102331.13
2018-12-13T01:40:01.801Z,102329.89
2018-12-13T01:42:29.226Z,102325.63
2018-12-13T01:44:56.643Z,102326.94
2018-12-13T01:47:24.167Z,102323.50
2018-12-13T01:49:51.596Z,102320.40
2018-12-13T01:52:19.040Z,102324.20
2018-12-13T01:54:46.476Z,102319.40
2018-12-13T01:57:13.880Z,102319.81
2018-12-13T01:59:41.321Z,102315.45
2018-12-13T02:02:08.738Z,102317.56
2018-12-13T02:04:36.180Z,102317.92
2018-12-13T02:07:03.607Z,102319.19
2018-12-13T02:09:31.028Z,102317.80
2018-12-13T02:11:58.461Z,102316.82
2018-12-13T02:14:25.935Z,102313.25
2018-12-13T02:16:53.376Z,102314.52
2018-12-13T02:19:20.886Z,102319.59
2018-12-13T02:21:48.324Z,102320.84
2018-12-13T02:24:15.788Z,102313.06
2018-12-13T02:26:43.212Z,102313.06
2018-12-13T02:29:10.658Z,102313.88
2018-12-13T02:31:38.067Z,102316.03
2018-12-13T02:34:05.481Z,102310.40
2018-12-13T02:36:32.902Z,102309.17
2018-12-13T02:39:00.339Z,102310.04
2018-12-13T02:41:27.783Z,102315.20
2018-12-13T02:43:55.197Z,102315.19
2018-12-13T02:46:22.631Z,102315.17
2018-12-13T02:48:53.889Z,102308.22
2018-12-13T02:51:21.324Z,102312.83
2018-12-13T02:53:48.775Z,102308.92
2018-12-13T02:56:16.193Z,102299.88
2018-12-13T02:58:43.611Z,102303.66
2018-12-13T03:01:11.067Z,102304.53
2018-12-13T03:03:38.605Z,102303.66
2018-12-13T03:06:05.999Z,102303.69
2018-12-13T03:08:33.425Z,102297.70
2018-12-13T03:11:00.939Z,102297.33
2018-12-13T03:13:28.375Z,102295.62
2018-12-13T03:15:55.797Z,102288.33
2018-12-13T03:18:23.210Z,102292.53
2018-12-13T03:20:50.657Z,102284.27
2018-12-13T03:23:18.055Z,102281.70
2018-12-13T03:25:45.505Z,102280.86
2018-12-13T03:28:12.921Z,102278.22
2018-12-13T03:30:40.349Z,102278.61
2018-12-13T03:33:07.878Z,102282.03
2018-12-13T03:35:35.358Z,102276.42
2018-12-13T03:38:02.872Z,102275.16
2018-12-13T03:40:30.303Z,102281.12
2018-12-13T03:42:57.725Z,102279.45
2018-12-13T03:45:25.136Z,102273.48
2018-12-13T03:47:52.548Z,102276.05
2018-12-13T03:50:19.955Z,102271.24
2018-12-13T03:52:47.396Z,102268.20
2018-12-13T03:55:14.853Z,102264.08
2018-12-13T03:57:42.296Z,102266.67
2018-12-13T04:00:09.822Z,102263.12
2018-12-13T04:02:37.255Z,102259.65
2018-12-13T04:05:05.521Z,102262.20
2018-12-13T04:07:32.947Z,102258.40
2018-12-13T04:10:00.369Z,102259.28
2018-12-13T04:12:27.825Z,102260.22
2018-12-13T04:14:55.353Z,102258.86
2018-12-13T04:17:22.806Z,102261.35
2018-12-13T04:19:50.229Z,102252.23
2018-12-13T04:22:17.664Z,102255.25
2018-12-13T04:24:45.103Z,102258.78
2018-12-13T04:27:12.537Z,102257.13
2018-12-13T04:29:39.965Z,102253.30
2018-12-13T04:32:07.428Z,102253.66
2018-12-13T04:34:34.882Z,102254.92
2018-12-13T04:37:02.399Z,102253.99
2018-12-13T04:39:29.827Z,102252.70
2018-12-13T04:41:57.257Z,102251.38
2018-12-13T04:44:24.676Z,102246.68
2018-12-13T04:46:52.097Z,102248.36
2018-12-13T04:49:19.551Z,102249.23
2018-12-13T04:51:46.994Z,102247.98
2018-12-13T04:54:14.532Z,102253.08
2018-12-13T04:56:42.707Z,102237.63
2018-12-13T04:59:10.143Z,102241.91
2018-12-13T05:01:37.571Z,102236.75
2018-12-13T05:04:05.013Z,102232.98
2018-12-13T05:06:32.439Z,102234.78
2018-12-13T05:08:59.903Z,102235.64
2018-12-13T05:11:27.323Z,102234.76
2018-12-13T05:13:54.771Z,102234.34
2018-12-13T05:16:22.201Z,102230.86
2018-12-13T05:18:49.633Z,102229.06
2018-12-13T05:21:17.059Z,102227.30
2018-12-13T05:23:45.101Z,102229.92
2018-12-13T05:26:12.537Z,102222.16
2018-12-13T05:28:39.975Z,102228.53
2018-12-13T05:31:07.383Z,102223.34
2018-12-13T05:33:35.135Z,102214.84
2018-12-13T05:36:02.569Z,102215.22
2018-12-13T05:38:29.991Z,102221.44
2018-12-13T05:40:57.429Z,102220.58
2018-12-13T05:43:25.918Z,102207.28
2018-12-13T05:45:53.527Z,102217.25
2018-12-13T05:48:21.007Z,102215.56
2018-12-13T05:50:48.409Z,102210.59
2018-12-13T05:53:15.840Z,102206.52
2018-12-13T05:55:43.294Z,102207.44
2018-12-13T05:58:10.711Z,102199.75
2018-12-13T06:00:38.163Z,102201.12
2018-12-13T06:03:05.581Z,102207.61
2018-12-13T06:05:33.027Z,102197.80
2018-12-13T06:08:00.448Z,102206.05
2018-12-13T06:10:27.870Z,102200.08
2018-12-13T06:12:55.291Z,102198.40
2018-12-13T06:15:22.715Z,102198.88
2018-12-13T06:17:50.135Z,102198.89
2018-12-13T06:20:17.573Z,102202.39
2018-12-13T06:22:45.005Z,102201.58
2018-12-13T06:25:12.476Z,102202.83
2018-12-13T06:27:39.901Z,102212.27
2018-12-13T06:34:55.133Z,102205.39
2018-12-13T06:37:22.565Z,102215.30
2018-12-13T06:39:49.979Z,102212.78
2018-12-13T06:42:17.402Z,102210.20
2018-12-13T06:44:44.831Z,102221.34
2018-12-13T06:47:12.279Z,102221.77
2018-12-13T06:49:39.722Z,102216.23
2018-12-13T06:52:07.143Z,102220.59
2018-12-13T06:54:34.558Z,102220.13
2018-12-13T06:57:01.984Z,102214.60
2018-12-13T06:59:29.434Z,102215.47
2018-12-13T07:01:56.855Z,102218.02
2018-12-13T07:04:24.300Z,102221.00
2018-12-13T07:06:51.750Z,102214.12
2018-12-13T07:09:19.167Z,102218.03
2018-12-13T07:11:46.591Z,102215.02
2018-12-13T07:14:14.030Z,102215.89
2018-12-13T07:16:41.456Z,102212.86
2018-12-13T07:19:08.916Z,102202.55
2018-12-13T07:21:36.427Z,102207.68
2018-12-13T07:24:03.896Z,102214.55
2018-12-13T07:26:31.321Z,102215.41
2018-12-13T07:28:58.834Z,102215.41
2018-12-13T07:31:26.250Z,102218.02
2018-12-13T07:33:53.814Z,102219.33
2018-12-13T07:36:21.283Z,102215.47
2018-12-13T07:38:48.759Z,102223.22
2018-12-13T07:41:16.215Z,102211.25
2018-12-13T07:43:43.633Z,102220.64
2018-12-13T07:46:11.052Z,102218.56
2018-12-13T07:48:38.474Z,102216.03
2018-12-13T07:51:05.883Z,102213.89
2018-12-13T07:53:33.317Z,102210.89
2018-12-13T07:56:00.863Z,102208.31
2018-12-13T07:58:28.358Z,102202.73
2018-12-13T08:00:55.763Z,102201.45
2018-12-13T08:03:23.192Z,102205.27
2018-12-13T08:05:50.625Z,102200.57
2018-12-13T08:08:21.057Z,102191.99
2018-12-13T08:10:47.487Z,102199.72
2018-12-13T08:13:14.915Z,102196.72
2018-12-13T08:15:42.434Z,102202.72
2018-12-13T08:18:09.861Z,102208.73
2018-12-13T08:20:37.288Z,102209.67
2018-12-13T08:23:04.735Z,102202.76
2018-12-13T08:25:32.206Z,102205.75
2018-12-13T08:27:59.611Z,102204.95
2018-12-13T08:30:27.055Z,102210.10
2018-12-13T08:32:54.475Z,102197.66
2018-12-13T08:35:21.897Z,102199.83
2018-12-13T08:37:49.323Z,102199.81
2018-12-13T08:40:16.758Z,102203.26
2018-12-13T08:42:44.203Z,102200.62
2018-12-13T08:45:11.630Z,102205.34
2018-12-13T08:47:39.061Z,102206.70
2018-12-13T08:50:06.635Z,102207.96
2018-12-13T08:52:34.059Z,102211.03
2018-12-13T08:55:01.527Z,102208.43
2018-12-13T08:57:28.948Z,102211.03
2018-12-13T08:59:56.379Z,102207.13
2018-12-13T09:02:23.804Z,102203.27
2018-12-13T09:04:51.240Z,102207.13
2018-12-13T09:07:18.682Z,102202.87
2018-12-13T09:09:46.103Z,102203.72
2018-12-13T09:12:13.523Z,102205.44
2018-12-13T09:14:40.968Z,102201.14
2018-12-13T09:17:08.398Z,102201.14
2018-12-13T09:19:35.827Z,102201.58
2018-12-13T09:22:03.271Z,102197.29
2018-12-13T09:24:30.722Z,102198.14
2018-12-13T09:26:58.151Z,102195.14
2018-12-13T09:29:25.575Z,102194.25
2018-12-13T09:31:54.073Z,102192.98
2018-12-13T09:34:21.523Z,102192.59
2018-12-13T09:36:48.958Z,102190.84
2018-12-13T09:39:16.369Z,102193.03
2018-12-13T09:41:43.799Z,102187.47
2018-12-13T09:44:13.668Z,102181.84
2018-12-13T09:46:41.206Z,102180.57
2018-12-13T09:49:08.627Z,102181.86
2018-12-13T09:51:36.057Z,102184.50
2018-12-13T09:54:03.692Z,102175.52
2018-12-13T09:56:31.311Z,102171.70
2018-12-13T09:58:58.729Z,102170.87
2018-12-13T10:01:26.168Z,102166.12
2018-12-13T10:03:53.743Z,102167.89
2018-12-13T10:06:21.156Z,102162.74
2018-12-13T10:08:48.623Z,102164.44
2018-12-13T10:11:16.075Z,102163.17
2018-12-13T10:13:43.512Z,102160.59
2018-12-13T10:16:10.991Z,102158.42
2018-12-13T10:18:38.424Z,102161.91
2018-12-13T10:21:05.850Z,102157.61
2018-12-13T10:23:33.284Z,102159.28
2018-12-13T10:26:00.709Z,102161.02
2018-12-13T10:28:28.129Z,102153.29
2018-12-13T10:30:55.543Z,102155.03
2018-12-13T10:33:22.964Z,102152.90
2018-12-13T10:35:50.402Z,102147.71
2018-12-13T10:38:17.838Z,102143.86
2018-12-13T10:40:45.278Z,102146.88
2018-12-13T10:43:12.699Z,102150.34
2018-12-13T10:45:40.122Z,102149.47
2018-12-13T10:48:07.563Z,102150.32
2018-12-13T10:50:35.003Z,102151.22
2018-12-13T10:53:02.436Z,102149.92
2018-12-13T10:55:29.901Z,102143.89
2018-12-13T10:57:57.466Z,102147.34
2018-12-13T11:00:30.516Z,102148.66
2018-12-13T11:03:25.531Z,102141.75
2018-12-13T11:05:52.988Z,102137.47
2018-12-13T11:08:20.440Z,102137.45
2018-12-13T11:10:47.874Z,102134.44
2018-12-13T11:13:15.322Z,102135.73
2018-12-13T11:15:42.786Z,102134.01
2018-12-13T11:18:10.199Z,102133.13
2018-12-13T11:20:37.616Z,102134.45
2018-12-13T11:23:05.040Z,102132.73
2018-12-13T11:25:32.459Z,102132.28
2018-12-13T11:28:12.671Z,102128.86
2018-12-13T11:30:40.110Z,102133.13
2018-12-13T11:33:07.559Z,102129.70
2018-12-13T11:35:34.987Z,102129.27
2018-12-13T11:38:02.443Z,102128.41
2018-12-13T11:40:29.913Z,102129.72
2018-12-13T11:42:57.363Z,102132.70
2018-12-13T11:45:24.781Z,102133.58
2018-12-13T11:47:52.268Z,102130.15
2018-12-13T11:50:19.710Z,102124.98
2018-12-13T11:52:47.228Z,102127.97
2018-12-13T11:55:26.476Z,102123.24
2018-12-13T11:57:53.903Z,102115.06
2018-12-13T12:00:21.331Z,102117.22
2018-12-13T12:02:48.805Z,102118.08
2018-12-13T12:05:16.223Z,102121.50
2018-12-13T12:07:43.652Z,102118.91
2018-12-13T12:10:11.102Z,102118.48
2018-12-13T12:12:38.519Z,102110.33
2018-12-13T12:15:06.977Z,102116.36
2018-12-13T12:17:34.429Z,102117.25
2018-12-13T12:20:02.816Z,102115.93
2018-12-13T12:22:30.220Z,102115.08
2018-12-13T12:24:57.720Z,102110.78
2018-12-13T12:27:25.111Z,102111.21
2018-12-13T12:29:52.545Z,102109.03
2018-12-13T12:32:19.980Z,102112.06
2018-12-13T12:34:47.393Z,102105.63
2018-12-13T12:37:14.826Z,102104.33
2018-12-13T12:39:42.367Z,102107.77
2018-12-13T12:42:09.784Z,102098.70
2018-12-13T12:44:39.147Z,102105.59
2018-12-13T12:47:06.555Z,102100.45
2018-12-13T12:49:34.004Z,102101.74
2018-12-13T12:52:01.441Z,102091.41
2018-12-13T12:54:28.879Z,102087.52
2018-12-13T12:56:56.307Z,102094.41
2018-12-13T12:59:23.716Z,102100.00
2018-12-13T13:01:51.129Z,102100.87
2018-12-13T13:04:18.569Z,102095.71
2018-12-13T13:06:46.033Z,102092.67
2018-12-13T13:09:13.466Z,102091.38
2018-12-13T13:11:40.887Z,102087.08
2018-12-13T13:14:08.423Z,102087.97
2018-12-13T13:16:35.849Z,102090.52
2018-12-13T13:19:03.290Z,102093.09
2018-12-13T13:21:30.800Z,102095.69
2018-12-13T13:23:58.204Z,102096.52
2018-12-13T13:26:25.655Z,102089.66
2018-12-13T13:28:53.155Z,102091.81
2018-12-13T13:31:20.621Z,102087.91
2018-12-13T13:33:48.063Z,102081.02
2018-12-13T13:36:15.495Z,102078.86
2018-12-13T13:38:42.919Z,102071.96
2018-12-13T13:41:10.363Z,102068.08
2018-12-13T13:43:38.535Z,102071.92
2018-12-13T13:46:05.992Z,102066.31
2018-12-13T13:48:33.461Z,102067.18
2018-12-13T13:51:00.874Z,102060.72
2018-12-13T13:53:28.292Z,102062.43
2018-12-13T13:55:55.721Z,102059.84
2018-12-13T13:58:23.183Z,102050.42
2018-12-13T14:00:50.592Z,102057.70
2018-12-13T14:03:18.016Z,102057.31
2018-12-13T14:05:45.444Z,102053.82
2018-12-13T14:08:12.863Z,102056.84
2018-12-13T14:10:40.313Z,102053.44
2018-12-13T14:13:07.773Z,102058.17
2018-12-13T14:15:35.191Z,102054.25
2018-12-13T14:18:02.631Z,102044.34
2018-12-13T14:20:30.055Z,102048.70
2018-12-13T14:22:58.320Z,102047.84
2018-12-13T14:25:25.746Z,102042.67
2018-12-13T14:27:53.167Z,102043.97
2018-12-13T14:30:20.604Z,102045.25
2018-12-13T14:32:48.038Z,102050.42
2018-12-13T14:35:15.505Z,102051.72
2018-12-13T14:37:42.933Z,102051.71
2018-12-13T14:40:10.384Z,102051.67
2018-12-13T14:42:37.806Z,102058.56
2018-12-13T14:45:05.481Z,102061.19
2018-12-13T14:47:33.031Z,102059.47
2018-12-13T14:50:00.800Z,102068.09
2018-12-13T14:52:28.210Z,102064.63
2018-12-13T14:54:55.659Z,102068.09
2018-12-13T14:57:23.111Z,102064.64
2018-12-13T14:59:50.540Z,102065.11
2018-12-13T15:02:18.006Z,102066.80
2018-12-13T15:04:45.433Z,102070.24
2018-12-13T15:07:12.879Z,102062.49
2018-12-13T15:09:40.299Z,102063.36
2018-12-13T15:12:07.719Z,102068.09
2018-12-13T15:14:35.135Z,102073.69
2018-12-13T15:17:02.547Z,102068.09
2018-12-13T15:19:30.024Z,102065.06
2018-12-13T15:21:57.435Z,102071.09
2018-12-13T15:24:24.863Z,102068.52
2018-12-13T15:26:52.276Z,102074.94
2018-12-13T15:29:19.761Z,102072.78
2018-12-13T15:31:47.180Z,102073.69
2018-12-13T15:34:14.600Z,102072.39
2018-12-13T15:36:42.808Z,102077.98
2018-12-13T15:39:10.223Z,102079.67
2018-12-13T15:41:37.645Z,102085.31
2018-12-13T15:44:05.145Z,102081.86
2018-12-13T15:46:32.575Z,102075.83
2018-12-13T15:48:59.997Z,102072.78
2018-12-13T15:51:27.452Z,102077.56
2018-12-13T15:53:54.909Z,102080.53
2018-12-13T15:56:22.320Z,102074.50
2018-12-13T15:58:49.764Z,102072.34
2018-12-13T16:01:17.210Z,102068.47
2018-12-13T16:03:44.666Z,102073.25
2018-12-13T16:06:12.080Z,102071.53
2018-12-13T16:08:39.519Z,102070.24
2018-12-13T16:11:06.956Z,102072.40
2018-12-13T16:13:34.378Z,102066.38
2018-12-13T16:16:01.792Z,102061.24
2018-12-13T16:18:29.234Z,102062.53
2018-12-13T16:20:56.706Z,102057.33
2018-12-13T16:23:24.148Z,102060.81
2018-12-13T16:25:51.564Z,102052.62
2018-12-13T16:28:18.988Z,102054.78
2018-12-13T16:30:46.394Z,102055.17
2018-12-13T16:33:13.941Z,102053.92
2018-12-13T16:35:41.362Z,102056.50
2018-12-13T16:38:08.780Z,102055.21
2018-12-13T16:40:36.218Z,102051.34
2018-12-13T16:43:03.711Z,102050.05
2018-12-13T16:45:31.149Z,102045.74
2018-12-13T16:47:58.572Z,102053.06
2018-12-13T16:50:25.992Z,102058.23
2018-12-13T16:52:54.146Z,102059.95
2018-12-13T16:55:21.609Z,102060.81
2018-12-13T16:57:49.077Z,102066.41
2018-12-13T17:00:16.539Z,102066.88
2018-12-13T17:02:43.976Z,102072.47
2018-12-13T17:05:11.451Z,102067.73
2018-12-13T17:07:38.859Z,102069.02
2018-12-13T17:10:07.765Z,102074.16
2018-12-13T17:12:35.269Z,102071.14
2018-12-13T17:15:02.744Z,102068.99
2018-12-13T17:17:30.173Z,102068.59
2018-12-13T17:19:58.144Z,102062.99
2018-12-13T17:22:25.584Z,102057.42
2018-12-13T17:24:53.055Z,102058.69
2018-12-13T17:27:20.507Z,102059.98
2018-12-13T17:29:47.989Z,102060.41
2018-12-13T17:32:15.420Z,102060.84
2018-12-13T17:34:42.839Z,102069.02
2018-12-13T17:37:10.515Z,102068.59
2018-12-13T17:39:38.162Z,102070.31
2018-12-13T17:42:05.602Z,102081.94
2018-12-13T17:44:33.056Z,102080.21
2018-12-13T17:47:00.498Z,102071.60
2018-12-13T17:49:27.912Z,102073.77
2018-12-13T17:51:55.343Z,102073.77
2018-12-13T17:54:22.782Z,102076.35
2018-12-13T17:56:50.201Z,102068.61
2018-12-13T17:59:17.637Z,102074.18
2018-12-13T18:01:45.062Z,102072.45
2018-12-13T18:04:12.509Z,102072.89
2018-12-13T18:06:39.950Z,102076.77
2018-12-13T18:09:07.508Z,102084.08
2018-12-13T18:11:34.936Z,102085.38
2018-12-13T18:14:02.404Z,102085.83
2018-12-13T18:16:30.050Z,102090.11
2018-12-13T18:18:57.506Z,102099.14
2018-12-13T18:21:24.956Z,102096.56
2018-12-13T18:23:52.461Z,102096.56
2018-12-13T18:26:19.941Z,102086.67
2018-12-13T18:28:49.167Z,102095.71
2018-12-13T18:31:16.647Z,102093.12
2018-12-13T18:33:44.280Z,102096.15
2018-12-13T18:36:11.703Z,102087.53
2018-12-13T18:38:39.133Z,102087.54
2018-12-13T18:41:06.554Z,102086.69
2018-12-13T18:43:33.975Z,102092.28
2018-12-13T18:46:01.426Z,102091.41
2018-12-13T18:48:28.971Z,102093.56
2018-12-13T18:50:56.407Z,102095.71
2018-12-13T18:53:23.836Z,102099.16
2018-12-13T18:55:51.259Z,102100.87
2018-12-13T18:58:18.720Z,102094.42
2018-12-13T19:00:46.166Z,102096.58
2018-12-13T19:03:13.631Z,102099.15
2018-12-13T19:05:41.075Z,102087.11
2018-12-13T19:08:08.522Z,102090.95
2018-12-13T19:10:41.778Z,102089.25
2018-12-13T19:13:05.371Z,102094.84
2018-12-13T19:15:32.844Z,102093.11
2018-12-13T19:18:00.259Z,102096.57
2018-12-13T19:20:27.696Z,102091.41
2018-12-13T19:22:55.132Z,102094.84
2018-12-13T19:25:22.561Z,102097.43
2018-12-13T19:27:50.013Z,102100.01
2018-12-13T19:30:17.504Z,102101.75
2018-12-13T19:32:44.931Z,102096.56
2018-12-13T19:35:12.384Z,102103.02
2018-12-13T19:37:39.831Z,102106.04
2018-12-13T19:40:07.686Z,102106.45
2018-12-13T19:42:35.199Z,102099.99
2018-12-13T19:45:02.637Z,102103.45
2018-12-13T19:47:30.481Z,102097.00
2018-12-13T19:49:57.929Z,102102.18
2018-12-13T19:52:25.375Z,102106.05
2018-12-13T19:54:52.805Z,102106.48
2018-12-13T19:57:20.230Z,102117.22
2018-12-13T19:59:47.693Z,102112.48
2018-12-13T20:02:15.149Z,102107.33
2018-12-13T20:04:42.619Z,102112.06
2018-12-13T20:07:10.093Z,102111.61
2018-12-13T20:09:37.571Z,102110.76
2018-12-13T20:12:05.045Z,102110.31
2018-12-13T20:14:32.473Z,102107.31
2018-12-13T20:16:59.934Z,102109.04
2018-12-13T20:19:27.359Z,102107.72
2018-12-13T20:21:54.829Z,102102.14
2018-12-13T20:24:22.287Z,102106.45
2018-12-13T20:26:49.868Z,102111.60
2018-12-13T20:29:17.625Z,102112.46
2018-12-13T20:31:45.061Z,102112.91
2018-12-13T20:34:12.523Z,102118.91
2018-12-13T20:36:39.967Z,102114.63
2018-12-13T20:39:08.545Z,102120.18
2018-12-13T20:41:37.233Z,102116.73
2018-12-13T20:44:04.693Z,102115.44
2018-12-13T20:46:32.133Z,102115.05
2018-12-13T20:48:59.597Z,102117.19
2018-12-13T20:51:27.181Z,102116.74
2018-12-13T20:53:54.628Z,102122.77
2018-12-13T20:56:22.061Z,102123.19
2018-12-13T20:58:49.496Z,102125.77
2018-12-13T21:01:16.923Z,102124.02
2018-12-13T21:03:44.344Z,102121.91
2018-12-13T21:06:11.835Z,102120.18
2018-12-13T21:08:39.292Z,102123.20
2018-12-13T21:11:07.618Z,102132.22
2018-12-13T21:13:35.403Z,102127.92
2018-12-13T21:16:02.885Z,102124.06
2018-12-13T21:18:30.393Z,102127.93
2018-12-13T21:20:57.848Z,102135.23
2018-12-13T21:23:25.312Z,102127.50
2018-12-13T21:25:52.739Z,102128.36
2018-12-13T21:28:20.175Z,102126.66
2018-12-13T21:30:47.616Z,102129.22
2018-12-13T21:33:15.051Z,102127.48
2018-12-13T21:35:42.499Z,102130.05
2018-12-13T21:38:09.938Z,102130.05
2018-12-13T21:40:37.360Z,102136.48
2018-12-13T21:43:04.803Z,102130.05
2018-12-13T21:45:32.255Z,102131.34
2018-12-13T21:47:59.729Z,102132.63
2018-12-13T21:50:27.162Z,102127.02
2018-12-13T21:52:54.585Z,102125.74
2018-12-13T21:55:22.041Z,102124.02
2018-12-13T21:57:49.463Z,102121.42
2018-12-13T22:00:16.884Z,102120.12
2018-12-13T22:02:44.307Z,102122.28
2018-12-13T22:05:11.747Z,102124.44
2018-12-13T22:07:39.204Z,102126.61
2018-12-13T22:10:06.987Z,102127.47
2018-12-13T22:12:34.424Z,102127.47
2018-12-13T22:15:02.612Z,102129.64
2018-12-13T22:17:30.286Z,102123.59
2018-12-13T22:19:57.713Z,102126.62
2018-12-13T22:22:25.127Z,102131.34
2018-12-13T22:24:52.585Z,102128.33
2018-12-13T22:27:20.003Z,102128.77
2018-12-13T22:29:47.439Z,102124.89
2018-12-13T22:32:14.870Z,102129.22
2018-12-13T22:34:42.415Z,102131.34
2018-12-13T22:37:10.198Z,102133.05
2018-12-13T22:39:37.749Z,102132.63
2018-12-13T22:42:05.216Z,102129.56
2018-12-13T22:44:32.814Z,102128.71
2018-12-13T22:47:00.299Z,102132.15
2018-12-13T22:49:27.716Z,102128.70
2018-12-13T22:51:55.165Z,102127.84
2018-12-13T22:54:22.643Z,102125.23
2018-12-13T22:56:50.174Z,102117.09
2018-12-13T22:59:17.736Z,102121.41
2018-12-13T23:01:45.359Z,102115.83
2018-12-13T23:04:12.879Z,102122.21
2018-12-13T23:06:40.313Z,102125.20
2018-12-13T23:09:07.727Z,102124.77
2018-12-13T23:11:35.170Z,102126.53
2018-12-13T23:14:02.712Z,102132.93
2018-12-13T23:16:30.142Z,102123.45
2018-12-13T23:18:57.704Z,102128.66
2018-12-13T23:21:25.123Z,102130.80
2018-12-13T23:23:52.555Z,102129.96
2018-12-13T23:26:19.999Z,102128.22
2018-12-13T23:28:47.471Z,102128.25
2018-12-13T23:31:14.981Z,102123.54
2018-12-13T23:33:43.380Z,102118.81
2018-12-13T23:36:10.787Z,102126.98
2018-12-13T23:38:38.255Z,102126.13
2018-12-13T23:41:05.698Z,102124.42
2018-12-13T23:43:33.121Z,102119.23
2018-12-13T23:46:00.544Z,102118.41
2018-12-13T23:48:27.958Z,102117.49
2018-12-13T23:50:55.614Z,102113.61
2018-12-13T23:53:23.076Z,102118.36
2018-12-13T23:55:50.582Z,102120.91
2018-12-13T23:58:18.000Z,102111.91
